KPSC/PSC METAR and TAF weather

Enter ICAO airport designator
Station Type Date Time Source
KPSC METAR 2022/12/05 13:53 UTC NOAA

KPSC 051353Z 00000KT 4SM -SN BR OVC005 M03/M05 A3012 RMK AO2 SLP204 P0000 T10331050


Station Type Date Time Source
KPSC Decoded METAR 2022/12/05 13:53 UTC NOAA

TRI-CITIES AIRPORT, WA, United States (KPSC) 46-16N 119-07W 121M
Dec 05, 2022 - 08:53 AM EST / 2022.12.05 1353 UTC
Wind: Calm:0
Visibility: 4 mile(s):0
Sky conditions: overcast
Weather: light snow; mist
Precipitation last hour: A trace
Temperature: 26.1 F (-3.3 C)
Dew Point: 23.0 F (-5.0 C)
Relative Humidity: 87%
Pressure (altimeter): 30.12 in. Hg (1019 hPa)
ob: KPSC 051353Z 00000KT 4SM -SN BR OVC005 M03/M05 A3012 RMK AO2 SLP204 P0000 T10331050
cycle: 14

Station Type Date Time Source
KPSC TAF 2022/12/05 14:12 UTC NOAA

TAF
AMD KPSC 051409Z 0514/0612 21004KT 4SM BR OVC005
TEMPO 0514/0516 3SM -SN BR OVC012
FM051600 VRB03KT 4SM BR OVC007
FM052000 VRB03KT 6SM BR OVC015
FM060900 27003KT 4SM BR OVC007

Example: see airport list